Tiempo atmosférico en la estación meteorológica de Ainsa, Huesca (610 m.)



Fecha
DESCASC
Temp. máxima en grados centígrados (hora)
DESCASC
Temp. mínima en grados centígrados (hora)
DESCASC
Temp. media en grados centígrados
DESCASC
Racha de viento máxima en m/sg (hora)
DESCASC
Velocidad máxima media en intervalos de 10 minutos(hora)
DESCASC
Precipitaciones diarias en mm
DESCASC
Precipitaciones de 00:00 a 06:00 en mm
DESCASC
Precipitaciones de 06:00 a 12:00 en mm
DESCASC
Precipitaciones de 12:00 a 18:00 en mm
DESCASC
Precipitaciones de 18:00 a 24:00 en mm
DESCASC
05-04-2020 18 (16:50) 3.1 (08:10) 10.5 7.22 (17:20) 5.56 (17:20) 0 0 0 0 0
04-04-2020 18 (16:00) 3.2 (07:10) 10.6 7.22 (16:40) 5.56 (17:00) 0 0 0 0 0
03-04-2020 16 (16:40) 1.9 (07:40) 8.9 10.28 (16:50) 7.5 (16:10) 0 0 0 0 0
02-04-2020 14.9 (16:10) 6.1 (00:00) 10.5 6.94 (18:30) 5 (17:50) 0.8 0.8 0 0 0
01-04-2020 9.4 (13:40) 6.8 (00:00) 8.1 5 (01:00) 3.33 (01:00) 11.4 1.4 0.4 3.4 6.2
31-03-2020 8.6 (17:20) 1.8 (00:00) 5.2 3.33 (08:50) 2.5 (09:00) 16.8 4.8 3 2.8 6.2
30-03-2020 10.2 (00:00) 2.3 (00:00) 6.2 8.33 (17:10) 5.83 (15:20) 0.8 0 0 0 0.8
29-03-2020 18.2 (18:00) 3.1 (00:00) 10.7 11.39 (20:40) 7.78 (16:10) 0 0 0 0 0
28-03-2020 17.2 (14:00) 2.4 (00:00) 9.8 9.72 (14:40) 7.5 (14:40) 0 0 0 0 0
27-03-2020 13.4 (15:10) -1.5 (-00:0) 5.9 7.22 (17:40) 5.56 (17:40) 0.2 0 0.2 0 0
26-03-2020 12.8 (15:40) 1.7 (00:00) 7.3 11.67 (13:40) 6.67 (18:20) 2.6 0 0 0 2.6
25-03-2020 7.4 (00:00) 3.2 (00:00) 5.3 7.22 (04:10) 4.72 (04:10) 1.2 0.6 0.6 0 0
24-03-2020 16 (15:30) 7.4 (00:00) 11.7 10.56 (21:10) 7.5 (21:10) 0 0 0 0 0
23-03-2020 14.3 (14:10) 5.6 (00:00) 10 5 (14:20) 3.89 (21:20) 1.4 0.4 0 1 0
22-03-2020 16.2 (15:10) 6.7 (07:30) 11.5 8.06 (19:30) 5.83 (19:40) 9.4 0 0 0 9.4
21-03-2020 16.6 (15:10) 5.1 (00:00) 10.9 8.33 (16:10) 6.11 (16:10) 0 0 0 0 0
20-03-2020 16.2 (13:50) 7.2 (00:00) 11.7 7.5 (15:50) 5.83 (16:20) 0 0 0 0 0
19-03-2020 18.7 (15:30) 6.9 (00:00) 12.8 6.94 (16:50) 5.28 (16:40) 0 0 0 0 0
18-03-2020 16 (15:20) 6.3 (00:00) 11.2 5.83 (17:20) 4.72 (17:10) 0.2 0.2 0 0 0
17-03-2020 12.6 (14:00) 7.9 (00:00) 10.3 3.61 (06:50) 2.78 (06:50) 0.6 0 0.6 0 0
16-03-2020 8.8 (00:00) 6 (00:00) 7.4 7.5 (13:50) 4.44 (04:10) 60.6 41 15.6 4 0
15-03-2020 19.1 (13:40) 4 (00:00) 11.6 11.11 (23:20) 6.39 (23:20) 10.8 0 0 0 10.8
14-03-2020 16.8 (12:10) 7.7 (00:00) 12.2 8.89 (15:40) 7.5 (15:40) 0 0 0 0 0
13-03-2020 14.2 (17:40) 9.4 (07:40) 11.8 10.83 (09:20) 5.83 (09:20) 2.2 2 0.2 0 0
12-03-2020 22.6 (17:00) 6.7 (00:00) 14.7 4.17 (21:10) 3.06 (21:10) 0 0 0 0 0
11-03-2020 22.3 (14:20) 3.5 (00:00) 12.9 7.78 (16:20) 6.39 (16:20) 0 0 0 0 0
10-03-2020 17.9 (16:00) 2.3 (00:00) 10.1 5 (16:40) 4.44 (16:50) 0 0 0 0 0
09-03-2020 16.5 (13:50) 3.5 (00:00) 10 13.61 (15:30) 7.78 (20:40) 0 0 0 0 0

Gráficas

Temp. máximas Temp. mínimas Temp. medias Precipitaciones Rachas de viento máximas Velocidades máximas media en intervalos de 10 minutos

Datos horarios

Fecha y hora oficial Temperatura (ºC) Velocidad del viento (km/h) Dirección del viento Racha (km/h) Dirección de racha Precipitación (mm) Presión (hPa) Tendencia (hPa) Humedad (%)
2020-04-07 23:00:00 9.6 2 Noroeste 4 Norte 0 -- -- 99
2020-04-07 22:00:00 9.8 0 Calma 4 Nordeste 0 -- -- 98
2020-04-07 21:00:00 9.9 0 Calma 6 Norte 0.2 -- -- 98
2020-04-07 20:00:00 10.1 0 Calma 4 Oeste 0 -- -- 97
2020-04-07 19:00:00 10 3 Sudoeste 5 Oeste 0.2 -- -- 98
2020-04-07 18:00:00 9.5 5 Oeste 8 Noroeste 2.2 -- -- 98
2020-04-07 17:00:00 9.4 0 Calma 6 Noroeste 2.4 -- -- 97
2020-04-07 16:00:00 9.1 3 Noroeste 7 Oeste 0.6 -- -- 96
2020-04-07 15:00:00 9.3 4 Oeste 6 Sur 0.6 -- -- 96
2020-04-07 14:00:00 9.1 5 Sudeste 9 Sudeste 0.6 -- -- 96
2020-04-07 13:00:00 9.8 6 Sudeste 11 Sudeste 0 -- -- 90
2020-04-07 12:00:00 9.7 4 Sur 15 Sudoeste 0.6 -- -- 89
2020-04-07 11:00:00 10.2 5 Sudeste 10 Sudeste 0.2 -- -- 96
2020-04-07 10:00:00 10 6 Sudeste 9 Sudeste 0.2 -- -- 99
2020-04-07 09:00:00 9.7 0 Calma 3 Noroeste 0 -- -- 99
2020-04-07 08:00:00 9.3 0 Calma 4 Sudoeste 0 -- -- 99
2020-04-07 07:00:00 9.2 0 Calma 5 Oeste 0 -- -- 99
2020-04-07 06:00:00 9.3 3 Noroeste 10 Oeste 0 -- -- 99
2020-04-07 05:00:00 9.5 4 Oeste 6 Oeste 0 -- -- 98
2020-04-07 04:00:00 9.9 3 Norte 6 Nordeste 0 -- -- 98
2020-04-07 03:00:00 9.9 3 Nordeste 12 Sudeste 0 -- -- 99
2020-04-07 02:00:00 10.1 9 Sudeste 12 Sudeste 0 -- -- 98
2020-04-07 01:00:00 10.4 3 Este 13 Norte 0 -- -- 95
2020-04-07 00:00:00 10.7 4 Noroeste 7 Noroeste 0 -- -- 95
2020-04-06 23:00:00 10.9 5 Oeste 8 Oeste 0 -- -- 91
2020-04-06 22:00:00 11.4 3 Noroeste 8 Oeste 0 -- -- 90
2020-04-06 21:00:00 12 3 Norte 6 Oeste 0.2 -- -- 88
2020-04-06 20:00:00 12.9 4 Oeste 9 Norte 0.2 -- -- 81
2020-04-06 19:00:00 13.5 6 Norte 13 Norte 0 -- -- 78
2020-04-06 18:00:00 14 5 Norte 10 Norte 0 -- -- 73
2020-04-06 17:00:00 14.4 2 Noroeste 11 Norte 0 -- -- 73
2020-04-06 16:00:00 13.4 5 Norte 9 Norte 0 -- -- 83
2020-04-06 15:00:00 12.5 0 Calma 5 Norte 0 -- -- 85
2020-04-06 14:00:00 11 3 Sur 5 Sudoeste 0 -- -- 90
2020-04-06 13:00:00 10.4 3 Sur 7 Este 0.2 -- -- 95
2020-04-06 12:00:00 9.9 0 Calma 5 Este 0 -- -- 94
2020-04-06 11:00:00 9.5 2 Sur 6 Este 0.2 -- -- 95
2020-04-06 10:00:00 9 3 Oeste 4 Sudoeste 0.4 -- -- 95
2020-04-06 09:00:00 8.5 2 Noroeste 4 Oeste 0.8 -- -- 94
2020-04-06 08:00:00 8.4 3 Noroeste 10 Oeste 0 -- -- 90
2020-04-06 07:00:00 8.3 4 Oeste 6 Nordeste 0 -- -- 91
2020-04-06 06:00:00 8.4 4 Norte -- -- 0 -- -- 89
2020-04-06 05:00:00 8.5 4 Noroeste 8 Oeste 0 -- -- 87
2020-04-06 04:00:00 8.4 7 Noroeste 9 Noroeste 0 -- -- 87
2020-04-06 03:00:00 8.5 5 Noroeste 8 Norte 0 -- -- 86
2020-04-06 02:00:00 8.7 4 Noroeste 9 Oeste 0 -- -- 84
2020-04-06 01:00:00 8.7 5 Noroeste 8 Noroeste 0 -- -- 81
2020-04-06 00:00:00 9 8 Oeste 13 Norte 0 -- -- 79
2020-04-05 23:00:00 10.2 4 Norte 8 Oeste 0 -- -- 76
2020-04-05 22:00:00 11.2 8 Noroeste 12 Norte 0 -- -- 71
2020-04-05 21:00:00 13.2 2 Nordeste 8 Este 0 -- -- 64
2020-04-05 20:00:00 14.2 9 Sudeste 24 Sur 0 -- -- 57
2020-04-05 19:00:00 15.4 17 Sur 25 Sur 0 -- -- 49
2020-04-05 18:00:00 17.1 17 Sudeste 26 Sudeste 0 -- -- 42
2020-04-05 17:00:00 17.7 13 Sur 26 Sudeste 0 -- -- 39
2020-04-05 16:00:00 17.5 14 Sudeste 21 Sudeste 0 -- -- 37
2020-04-05 15:00:00 17.6 10 Sudeste 20 Sudeste 0 -- -- 41
2020-04-05 14:00:00 16.3 10 Sudeste 20 Sudeste 0 -- -- 46
2020-04-05 13:00:00 15 7 Sur 15 Sur 0 -- -- 53
2020-04-05 12:00:00 13.9 6 Oeste 13 Sudoeste 0 -- -- 55
2020-04-05 11:00:00 11.6 3 Sudoeste 11 Este 0 -- -- 70
2020-04-05 10:00:00 7.7 4 Norte 8 Nordeste 0 -- -- 84
2020-04-05 09:00:00 4.6 0 Calma 9 Noroeste 0 -- -- 91
2020-04-05 08:00:00 3.4 5 Noroeste 9 Oeste 0 -- -- 96
2020-04-05 07:00:00 3.6 6 Noroeste 10 Noroeste 0 -- -- 93
2020-04-05 06:00:00 4.2 7 Oeste 10 Oeste 0 -- -- 90
2020-04-05 05:00:00 4.8 7 Oeste 10 Oeste 0 -- -- 91
2020-04-05 04:00:00 5.9 5 Oeste 12 Oeste 0 -- -- 86
2020-04-05 03:00:00 7.4 5 Oeste 9 Oeste 0 -- -- 86
2020-04-05 02:00:00 8.6 0 Calma 5 Oeste 0 -- -- 81
2020-04-05 01:00:00 8.9 4 Oeste 7 Noroeste 0 -- -- 79
2020-04-05 00:00:00 9.3 4 Noroeste 7 Noroeste 0 -- -- 77
2020-04-04 23:00:00 10.8 3 Sudeste 11 Sur 0 -- -- 70
2020-04-04 22:00:00 12.2 8 Sudeste 22 Sudeste 0 -- -- 68
2020-04-04 21:00:00 13.9 13 Sur 19 Sur 0 -- -- 62
2020-04-04 20:00:00 15.4 11 Sur 24 Sur 0 -- -- 56
2020-04-04 19:00:00 16.6 12 Sur 24 Sudeste 0 -- -- 52
2020-04-04 18:00:00 17.5 15 Sudeste 26 Sudeste 0 -- -- 50
2020-04-04 17:00:00 17.7 20 Sudeste 26 Sudeste 0 -- -- 49
2020-04-04 16:00:00 18 15 Sudeste 24 Sudeste 0 -- -- 50
2020-04-04 15:00:00 16.7 10 Sudeste 22 Sudeste 0 -- -- 54
2020-04-04 14:00:00 16.8 12 Sudeste 23 Sudeste 0 -- -- 54
2020-04-04 13:00:00 15.9 9 Sudeste 17 Sudeste 0 -- -- 60
2020-04-04 12:00:00 13.7 7 Sudeste 12 Sudeste 0 -- -- 65
2020-04-04 11:00:00 10.3 4 Sur 9 Sudeste 0 -- -- 78
2020-04-04 10:00:00 7.3 2 Oeste 8 Noroeste 0 -- -- 90
2020-04-04 09:00:00 4 4 Oeste 8 Norte 0 -- -- 96
2020-04-04 08:00:00 3.3 4 Noroeste 9 Noroeste 0 -- -- 96
2020-04-04 07:00:00 3.3 8 Noroeste 12 Noroeste 0 -- -- 97
2020-04-04 06:00:00 3.9 4 Noroeste 10 Oeste 0 -- -- 95
2020-04-04 05:00:00 4.2 6 Noroeste 13 Norte 0 -- -- 95
2020-04-04 04:00:00 5 3 Noroeste 10 Noroeste 0 -- -- 94
2020-04-04 03:00:00 5.2 6 Noroeste 15 Norte 0 -- -- 93
2020-04-04 02:00:00 5.8 12 Norte 18 Norte 0 -- -- 93
2020-04-04 01:00:00 6.6 8 Noroeste 12 Oeste 0 -- -- 90
2020-04-04 00:00:00 7.6 8 Noroeste 13 Noroeste 0 -- -- 88
2020-04-03 23:00:00 8.6 5 Noroeste 9 Norte 0 -- -- 83
2020-04-03 22:00:00 10 5 Noroeste 11 Norte 0 -- -- 77
2020-04-03 21:00:00 11.2 9 Sudeste 22 Sudeste 0 -- -- 72
2020-04-03 20:00:00 13.1 16 Sudeste 24 Sudeste 0 -- -- 62
2020-04-03 19:00:00 14.4 19 Sudeste 29 Sudeste 0 -- -- 58
2020-04-03 18:00:00 15.3 23 Sudeste 35 Sudeste 0 -- -- 58
2020-04-03 17:00:00 15.5 25 Sudeste 37 Sudeste 0 -- -- 57
2020-04-03 16:00:00 15.4 26 Sudeste 35 Sudeste 0 -- -- 59
2020-04-03 15:00:00 15.3 22 Sudeste 28 Sudeste 0 -- -- 61
2020-04-03 14:00:00 14.6 21 Sudeste 24 Sudeste 0 -- -- 65
2020-04-03 13:00:00 13.7 14 Sudeste 18 Sudeste 0 -- -- 65
2020-04-03 12:00:00 12.5 11 Sudeste 18 Este 0 -- -- 62
2020-04-03 11:00:00 9.6 9 Sudeste 14 Sudeste 0 -- -- 75
2020-04-03 10:00:00 6.3 3 Sur 8 Este 0 -- -- 88
2020-04-03 09:00:00 2.9 3 Noroeste 16 Norte 0 -- -- 93
2020-04-03 08:00:00 1.9 8 Noroeste 10 Norte 0 -- -- 96
2020-04-03 07:00:00 2.6 8 Noroeste 13 Noroeste 0 -- -- 95
2020-04-03 06:00:00 2.9 8 Noroeste 12 Norte 0 -- -- 94
2020-04-03 05:00:00 3.5 5 Noroeste 9 Oeste 0 -- -- 92
2020-04-03 04:00:00 4.5 6 Oeste 12 Oeste 0 -- -- 90
2020-04-03 03:00:00 4.7 7 Oeste 10 Oeste 0 -- -- 91
2020-04-03 02:00:00 5.2 7 Oeste 10 Oeste 0 -- -- 94
2020-04-03 01:00:00 5.6 5 Noroeste 12 Oeste 0 -- -- 92
2020-04-03 00:00:00 6.1 8 Noroeste 12 Noroeste 0 -- -- 91
2020-04-02 23:00:00 7.5 11 Oeste 15 Oeste 0 -- -- 90
2020-04-02 22:00:00 9.1 5 Noroeste 10 Noroeste 0 -- -- 91
2020-04-02 21:00:00 10.2 4 Sudeste 15 Sudeste 0 -- -- 86
2020-04-02 20:00:00 11.1 11 Sudeste 24 Sudeste 0 -- -- 83
2020-04-02 19:00:00 12.3 16 Sudeste 25 Sudeste 0 -- -- 77
2020-04-02 18:00:00 14 16 Sudeste 22 Sudeste 0 -- -- 70
2020-04-02 17:00:00 14.1 16 Sudeste 21 Sudeste 0 -- -- 67
2020-04-02 16:00:00 14.2 12 Sudeste 19 Sudeste 0 -- -- 68
2020-04-02 15:00:00 13.7 14 Sudeste 22 Sudeste 0 -- -- 71
2020-04-02 14:00:00 12.7 15 Sudeste 18 Sudeste 0 -- -- 78
2020-04-02 13:00:00 11.7 6 Sudeste 12 Sudeste 0 -- -- 78
2020-04-02 12:00:00 9.9 5 Sudeste 12 Sudeste 0 -- -- 89
2020-04-02 11:00:00 9 5 Sudeste 8 Sudeste 0 -- -- 99
2020-04-02 10:00:00 7.6 0 Calma 5 Noroeste 0 -- -- 100
2020-04-02 09:00:00 7.1 0 Calma 3 Norte 0 -- -- 100
2020-04-02 08:00:00 7 0 Calma 5 Norte 0 -- -- 100
2020-04-02 07:00:00 7.1 0 Calma -- -- 0 -- -- 100
2020-04-02 06:00:00 7.2 0 Calma 2 Este 0 -- -- 100
2020-04-02 05:00:00 7.2 0 Calma 5 Oeste 0 -- -- 100
2020-04-02 04:00:00 7.5 0 Calma 3 Nordeste 0.2 -- -- 100
2020-04-02 03:00:00 7.5 0 Calma 2 Este 0.2 -- -- 100
2020-04-02 02:00:00 7.5 0 Calma 3 Sudeste 0.2 -- -- 100
2020-04-02 01:00:00 7.5 2 Nordeste 4 Sudeste 0.2 -- -- 100
2020-04-02 00:00:00 7.4 2 Sur 8 Sudeste 1.8 -- -- 99
2020-04-01 23:00:00 7.6 6 Sudeste 11 Sudeste 2 -- -- 100
2020-04-01 22:00:00 7.8 7 Este 12 Este 1.6 -- -- 100
2020-04-01 21:00:00 8.1 8 Sudeste 14 Sudeste 0.8 -- -- 100
2020-04-01 20:00:00 8.5 10 Sudeste 13 Sudeste 0 -- -- 97
2020-04-01 19:00:00 9.2 0 Calma 4 Este 0 -- -- 95
2020-04-01 18:00:00 9.4 2 Este 4 Sudeste 0 -- -- 95
2020-04-01 17:00:00 9 3 Noroeste 9 Sudoeste 0.8 -- -- 94
2020-04-01 16:00:00 9.1 6 Oeste 14 Oeste 1.8 -- -- 95
2020-04-01 15:00:00 9 9 Sur 15 Sur 0.6 -- -- 96
2020-04-01 14:00:00 9.3 9 Sudeste 12 Sudeste 0.2 -- -- 95
2020-04-01 13:00:00 9 2 Nordeste 5 Nordeste 0 -- -- 95
2020-04-01 12:00:00 8.8 2 Nordeste 4 Nordeste 0.2 -- -- 95
2020-04-01 11:00:00 7.9 0 Calma 3 Norte 0 -- -- 99
2020-04-01 10:00:00 7.4 3 Nordeste 13 Norte 0 -- -- 100
2020-04-01 09:00:00 6.9 5 Noroeste 12 Norte 0 -- -- 99
2020-04-01 08:00:00 6.8 3 Oeste 10 Norte 0 -- -- 99
2020-04-01 07:00:00 6.9 9 Norte 12 Norte 0.2 -- -- 99
2020-04-01 06:00:00 6.8 5 Noroeste 10 Oeste 0 -- -- 100
2020-04-01 05:00:00 6.9 4 Norte 6 Norte 0 -- -- 100
2020-04-01 04:00:00 6.9 0 Calma 7 Oeste 0.2 -- -- 99
2020-04-01 03:00:00 7 3 Noroeste 9 Noroeste 0 -- -- 99
2020-04-01 02:00:00 7 5 Oeste 15 Noroeste 0.2 -- -- 99
2020-04-01 01:00:00 7 12 Noroeste 18 Noroeste 1 -- -- 100
2020-04-01 00:00:00 7.2 6 Noroeste 8 Noroeste 0.6 -- -- 99
2020-03-31 23:00:00 7.6 0 Calma 5 Oeste 0.4 -- -- 98
2020-03-31 22:00:00 7.7 4 Noroeste 5 Noroeste 1.6 -- -- 98
2020-03-31 21:00:00 8 0 Calma 4 Noroeste 1 -- -- 98
2020-03-31 20:00:00 8.3 0 Calma 3 Oeste 1.2 -- -- 98
2020-03-31 19:00:00 8.5 2 Sudeste 8 Sudoeste 1.4 -- -- 97
2020-03-31 18:00:00 8.6 6 Oeste 10 Oeste 0.8 -- -- 96
2020-03-31 17:00:00 8.4 6 Sudoeste 10 Oeste 0.8 -- -- 98
2020-03-31 16:00:00 8.1 3 Noroeste 7 Oeste 0.4 -- -- 98
2020-03-31 15:00:00 7.9 5 Oeste 8 Oeste 0.4 -- -- 96
2020-03-31 14:00:00 6.9 0 Calma 9 Oeste 0.4 -- -- 94
2020-03-31 13:00:00 5.9 6 Oeste 8 Oeste 0 -- -- 93
2020-03-31 12:00:00 5.2 4 Sudoeste 6 Oeste 0 -- -- 96
2020-03-31 11:00:00 4.5 6 Oeste 8 Oeste 0 -- -- 97
2020-03-31 10:00:00 3.7 5 Oeste 11 Oeste 0 -- -- 99
2020-03-31 09:00:00 3.3 9 Oeste 12 Oeste 0.6 -- -- 99
2020-03-31 08:00:00 3 4 Oeste 5 Oeste 1.2 -- -- 99
2020-03-31 07:00:00 2.8 2 Oeste 5 Sudoeste 1.2 -- -- 99
2020-03-31 06:00:00 2.5 5 Sudoeste 7 Sudoeste 1 -- -- 98
2020-03-31 05:00:00 2.2 4 Oeste 8 Noroeste 1 -- -- 98
2020-03-31 04:00:00 2 0 Calma 6 Oeste 1 -- -- 98
2020-03-31 03:00:00 1.9 5 Oeste 6 Oeste 1 -- -- 97
2020-03-31 02:00:00 2 3 Oeste 6 Oeste 0.6 -- -- 95
2020-03-31 01:00:00 2.3 3 Noroeste 5 Noroeste 0.2 -- -- 94
2020-03-31 00:00:00 2.3 0 Calma 5 Sudeste 0.2 -- -- 92
2020-03-30 23:00:00 2.5 3 Sudeste 8 Sur 0.6 -- -- 91
2020-03-30 22:00:00 3 6 Sur 29 Sur 0 -- -- 86
2020-03-30 21:00:00 5.7 5 Sur 15 Sudeste 0 -- -- 65
2020-03-30 20:00:00 6.2 8 Sudeste 18 Sudeste 0 -- -- 56
2020-03-30 19:00:00 6.4 14 Sudeste 24 Sudeste 0 -- -- 57
2020-03-30 18:00:00 7.2 18 Sudeste 30 Sudeste 0 -- -- 64
2020-03-30 17:00:00 8.3 19 Sudeste 26 Sudeste 0 -- -- 63
2020-03-30 16:00:00 8.3 18 Sudeste 29 Sudeste 0 -- -- 65
2020-03-30 15:00:00 7.2 19 Sudeste 26 Sudeste 0 -- -- 71
2020-03-30 14:00:00 6.2 19 Sudeste 28 Sudeste 0 -- -- 80
2020-03-30 13:00:00 5.1 14 Sudeste 19 Este 0 -- -- 86
2020-03-30 12:00:00 5.4 7 Sudoeste 18 Sur 0 -- -- 75
2020-03-30 11:00:00 6 9 Sudeste 18 Sur 0 -- -- 78
2020-03-30 10:00:00 5.4 6 Oeste 14 Oeste 0 -- -- 70
2020-03-30 09:00:00 4.9 8 Oeste 23 Oeste 0 -- -- 70
2020-03-30 08:00:00 5.2 9 Oeste 13 Oeste 0 -- -- 72
2020-03-30 07:00:00 5.9 13 Oeste 22 Oeste 0 -- -- 71
2020-03-30 06:00:00 7.2 12 Sudoeste 23 Sudoeste 0 -- -- 71
2020-03-30 05:00:00 8.2 10 Oeste 13 Oeste 0 -- -- 72
2020-03-30 04:00:00 8.5 7 Oeste 12 Oeste 0 -- -- 73
2020-03-30 03:00:00 9 7 Oeste 13 Oeste 0 -- -- 69
2020-03-30 02:00:00 9.2 6 Oeste 15 Oeste 0 -- -- 67
2020-03-30 01:00:00 9.5 13 Oeste 23 Oeste 0 -- -- 64
2020-03-30 00:00:00 10.2 13 Oeste 15 Oeste 0 -- -- 60
2020-03-29 23:00:00 11.6 8 Noroeste 22 Oeste 0 -- -- 56
2020-03-29 22:00:00 11.7 8 Oeste 36 Norte 0 -- -- 57
2020-03-29 21:00:00 12.5 23 Noroeste 41 Norte 0 -- -- 53
2020-03-29 20:00:00 13.9 22 Norte 36 Norte 0 -- -- 50
2020-03-29 19:00:00 15.8 13 Este 35 Este 0 -- -- 53
2020-03-29 18:00:00 18.2 20 Sudeste 34 Sudeste 0 -- -- 47
2020-03-29 17:00:00 16.7 25 Sudeste 34 Sudeste 0 -- -- 51
2020-03-29 16:00:00 18 24 Sudeste 33 Sudeste 0 -- -- 49
2020-03-29 15:00:00 17.7 27 Sudeste 33 Sudeste 0 -- -- 50
2020-03-29 14:00:00 17.9 17 Sudeste 21 Sudeste 0 -- -- 44
2020-03-29 13:00:00 16.9 10 Sudeste 15 Sudeste 0 -- -- 46
2020-03-29 12:00:00 14.3 6 Sudeste 12 Sudeste 0 -- -- 54
2020-03-29 11:00:00 10.7 5 Sudeste 10 Este 0 -- -- 66
2020-03-29 10:00:00 7.3 3 Noroeste 8 Noroeste 0 -- -- 79
2020-03-29 09:00:00 4.4 5 Noroeste 11 Noroeste 0 -- -- 89
2020-03-29 08:00:00 3.1 5 Noroeste 10 Noroeste 0 -- -- 93
2020-03-29 07:00:00 3.2 8 Noroeste 15 Norte 0 -- -- 92
2020-03-29 06:00:00 3.9 5 Noroeste 16 Norte 0 -- -- 91
2020-03-29 05:00:00 4.5 7 Noroeste 14 Norte 0 -- -- 90
2020-03-29 03:00:00 5.6 10 Norte 18 Norte 0 -- -- 89
2020-03-29 01:00:00 6.8 6 Oeste 15 Norte 0 -- -- 84
2020-03-29 00:00:00 7.6 7 Noroeste 12 Norte 0 -- -- 84
2020-03-28 23:00:00 8.3 7 Noroeste 13 Noroeste 0 -- -- 77
2020-03-28 22:00:00 9.8 8 Noroeste 18 Noroeste 0 -- -- 75
2020-03-28 21:00:00 12.1 9 Norte 15 Sudeste 0 -- -- 68
2020-03-28 20:00:00 12.9 10 Este 22 Este 0 -- -- 57
2020-03-28 19:00:00 14.2 14 Sudeste 22 Sudeste 0 -- -- 54
2020-03-28 18:00:00 15.8 16 Sudeste 23 Sudeste 0 -- -- 49
2020-03-28 17:00:00 16.9 12 Sudeste 24 Este 0 -- -- 46
2020-03-28 16:00:00 15.8 17 Sudeste 33 Este 0 -- -- 49
2020-03-28 15:00:00 16.8 23 Sudeste 35 Sudeste 0 -- -- 48
2020-03-28 14:00:00 17.2 18 Sudeste 32 Sudeste 0 -- -- 46
2020-03-28 13:00:00 15.6 16 Sudeste 27 Sudeste 0 -- -- 52
2020-03-28 12:00:00 14.2 17 Sudeste 22 Sudeste 0 -- -- 54
2020-03-28 11:00:00 12.5 10 Sudeste 17 Sudeste 0 -- -- 62
2020-03-28 10:00:00 9.4 6 Sudeste 11 Sudeste 0 -- -- 67
2020-03-28 09:00:00 5.9 4 Norte 10 Norte 0 -- -- 83
2020-03-28 08:00:00 3.2 4 Noroeste 12 Noroeste 0 -- -- 93
2020-03-28 07:00:00 2.5 6 Noroeste 10 Norte 0 -- -- 94
2020-03-28 06:00:00 3.3 8 Noroeste 10 Noroeste 0 -- -- 91
2020-03-28 05:00:00 4 5 Noroeste 8 Noroeste 0 -- -- 89
2020-03-28 04:00:00 4.6 6 Noroeste 12 Noroeste 0 -- -- 86
2020-03-28 03:00:00 4.3 11 Noroeste 18 Norte 0 -- -- 88
2020-03-28 02:00:00 4.3 6 Noroeste 11 Norte 0 -- -- 88
2020-03-28 01:00:00 4.3 6 Noroeste 13 Noroeste 0 -- -- 87
2020-03-28 00:00:00 4.4 7 Oeste 12 Noroeste 0 -- -- 87
2020-03-27 23:00:00 5.1 7 Noroeste 13 Oeste 0 -- -- 84
2020-03-27 22:00:00 6.7 7 Norte 10 Norte 0 -- -- 76
2020-03-27 21:00:00 8.1 4 Nordeste 13 Este 0 -- -- 69
2020-03-27 20:00:00 9.2 12 Sudeste 19 Este 0 -- -- 66
2020-03-27 19:00:00 11 12 Sudeste 21 Sudeste 0 -- -- 58
2020-03-27 18:00:00 12 14 Sudeste 26 Sudeste 0 -- -- 55
2020-03-27 17:00:00 12.7 12 Sudeste 21 Sudeste 0 -- -- 49
2020-03-27 16:00:00 13.3 15 Sudeste 23 Sudeste 0 -- -- 43
2020-03-27 15:00:00 13.2 14 Sudeste 20 Sudeste 0 -- -- 46
2020-03-27 14:00:00 12.6 12 Sudeste 17 Sudeste 0 -- -- 46
2020-03-27 13:00:00 10.9 9 Sudeste 15 Sudeste 0 -- -- 62
2020-03-27 12:00:00 9.3 7 Sudeste 13 Sudeste 0 -- -- 65
2020-03-27 11:00:00 7.3 5 Sur 13 Este 0 -- -- 80
2020-03-27 10:00:00 4.1 5 Sudeste 9 Este 0 -- -- 85
2020-03-27 09:00:00 1.4 5 Este 9 Este 0.2 -- -- 100
2020-03-27 08:00:00 -0.9 2 Norte 6 Nordeste 0 -- -- 100
2020-03-27 07:00:00 -1.5 0 Calma 6 Norte 0 -- -- 99
2020-03-27 06:00:00 -1 4 Norte 9 Norte 0 -- -- 99
2020-03-27 05:00:00 -0.6 4 Norte 7 Noroeste 0 -- -- 99
2020-03-27 04:00:00 -0.1 3 Oeste 8 Norte 0 -- -- 99
2020-03-27 03:00:00 0.4 3 Norte 6 Norte 0 -- -- 98
2020-03-27 02:00:00 1.1 0 Calma 6 Noroeste 0 -- -- 98
2020-03-27 01:00:00 1.3 5 Oeste 10 Oeste 0 -- -- 97
2020-03-27 00:00:00 1.7 6 Noroeste 8 Noroeste 0 -- -- 96
2020-03-26 23:00:00 2.2 6 Noroeste 17 Oeste 0 -- -- 94
2020-03-26 22:00:00 3.4 10 Oeste 15 Sudeste 0.6 -- -- 91
2020-03-26 21:00:00 4.4 8 Sur 36 Sudeste 1.8 -- -- 86
2020-03-26 20:00:00 6.5 19 Sudeste 31 Sudeste 0.2 -- -- 74
2020-03-26 19:00:00 7.9 19 Sudeste 33 Sudeste 0 -- -- 61
2020-03-26 18:00:00 9.4 13 Sudeste 31 Norte 0 -- -- 54
2020-03-26 17:00:00 11.6 17 Norte 34 Norte 0 -- -- 29
2020-03-26 16:00:00 12.8 14 Norte 30 Noroeste 0 -- -- 29
2020-03-26 15:00:00 12.2 9 Noroeste 31 Norte 0 -- -- 26
2020-03-26 14:00:00 11.6 18 Norte 42 Norte 0 -- -- 31
2020-03-26 13:00:00 11.8 15 Norte 35 Este 0 -- -- 39
2020-03-26 12:00:00 11.1 12 Norte 36 Nordeste 0 -- -- 35
2020-03-26 11:00:00 9.5 11 Noroeste 22 Norte 0 -- -- 42
2020-03-26 10:00:00 8.3 11 Sudeste 18 Sudeste 0 -- -- 76
2020-03-26 09:00:00 5.2 4 Noroeste 9 Nordeste 0 -- -- 94
2020-03-26 08:00:00 3 2 Noroeste 7 Sudoeste 0 -- -- 98
2020-03-26 07:00:00 3.1 6 Oeste 10 Sudoeste 0 -- -- 98
2020-03-26 06:00:00 3.2 5 Norte 7 Norte 0 -- -- 98
2020-03-26 05:00:00 3.7 4 Norte 7 Noroeste 0 -- -- 96
2020-03-26 04:00:00 4.4 2 Oeste 4 Oeste 0 -- -- 95
2020-03-26 03:00:00 4.4 0 Calma 9 Norte 0 -- -- 93
2020-03-26 02:00:00 4.6 3 Norte 5 Nordeste 0 -- -- 95
2020-03-26 01:00:00 4.6 3 Norte 7 Nordeste 0 -- -- 94
2020-03-26 00:00:00 4.8 0 Calma 3 Este 0 -- -- 93
2020-03-25 23:00:00 4.8 0 Calma 6 Norte 0 -- -- 92
2020-03-25 22:00:00 4.9 2 Norte 6 Nordeste 0 -- -- 92
2020-03-25 21:00:00 5 0 Calma 5 Este 0 -- -- 88
2020-03-25 20:00:00 5 0 Calma 4 Este 0 -- -- 86
2020-03-25 19:00:00 5.3 0 Calma 5 Este 0 -- -- 85
2020-03-25 18:00:00 5.4 4 Este 10 Este 0 -- -- 83
2020-03-25 17:00:00 5.3 3 Noroeste 6 Norte 0 -- -- 83
2020-03-25 16:00:00 5.3 3 Sudeste 8 Sudeste 0 -- -- 86
2020-03-25 15:00:00 4.8 5 Este 10 Este 0 -- -- 85
2020-03-25 14:00:00 4.3 3 Sudeste 14 Este 0 -- -- 91
2020-03-25 13:00:00 3.7 7 Este 20 Sudeste 0 -- -- 95
2020-03-25 12:00:00 3.2 15 Sudeste 24 Sudeste 0 -- -- 96
2020-03-25 11:00:00 3.6 12 Sur 19 Sur 0 -- -- 96
2020-03-25 10:00:00 4.4 9 Sudeste 18 Sudeste 0 -- -- 96
2020-03-25 09:00:00 4.1 9 Sudeste 16 Este 0 -- -- 96
2020-03-25 08:00:00 3.9 8 Sudeste 15 Sudeste 0.4 -- -- 98
2020-03-25 07:00:00 4.3 6 Sudeste 23 Este 0.2 -- -- 96
2020-03-25 06:00:00 4.6 17 Este 26 Sudeste 0.4 -- -- 95
2020-03-25 05:00:00 5.3 12 Sudeste 26 Sudeste 0 -- -- 89
2020-03-25 04:00:00 5.5 10 Sudeste 23 Sudeste 0 -- -- 90
2020-03-25 03:00:00 5.9 16 Sudeste 25 Sudeste 0.2 -- -- 92
2020-03-25 02:00:00 6.8 6 Sudeste 14 Sudeste 0 -- -- 97
2020-03-25 01:00:00 6.8 10 Sudeste 24 Sur 0 -- -- 95
2020-03-25 00:00:00 7.4 10 Sur 21 Sur 0 -- -- 88
2020-03-24 23:00:00 8.1 10 Sur 21 Sudeste 0 -- -- 86
2020-03-24 22:00:00 8.4 7 Sudeste 38 Sudeste 0 -- -- 84
2020-03-24 21:00:00 10.1 20 Sudeste 33 Sudeste 0 -- -- 78
2020-03-24 20:00:00 11 10 Sudeste 21 Sudeste 0 -- -- 77
2020-03-24 19:00:00 12 14 Sudeste 21 Sudeste 0 -- -- 73
2020-03-24 18:00:00 13.1 16 Sudeste 32 Sudeste 0 -- -- 67
2020-03-24 17:00:00 13.3 22 Sudeste 33 Sudeste 0 -- -- 66
2020-03-24 16:00:00 15.4 24 Sudeste 33 Sudeste 0 -- -- 60
2020-03-24 15:00:00 15.8 24 Sudeste 34 Sudeste 0 -- -- 60
2020-03-24 14:00:00 15.7 20 Sudeste 24 Sudeste 0 -- -- 59
2020-03-24 13:00:00 15.1 19 Sudeste 24 Sudeste 0 -- -- 63
2020-03-24 12:00:00 14.4 16 Sudeste 23 Sudeste 0 -- -- 66
2020-03-24 11:00:00 13 9 Sudeste 16 Sudeste 0 -- -- 72
2020-03-24 10:00:00 11.8 8 Sudeste 14 Sudeste 0 -- -- 81
2020-03-24 09:00:00 9 3 Este 6 Este 0 -- -- 96
2020-03-24 08:00:00 8.3 3 Norte 8 Norte 0 -- -- 98
2020-03-24 07:00:00 8.2 0 Calma 5 Nordeste 0 -- -- 98
2020-03-24 06:00:00 8.1 0 Calma 3 Nordeste 0 -- -- 98
2020-03-24 05:00:00 8 2 Norte 11 Norte 0 -- -- 98
2020-03-24 04:00:00 8.1 3 Nordeste 12 Norte 0 -- -- 97
2020-03-24 03:00:00 8.3 3 Noroeste 14 Norte 0 -- -- 96
2020-03-24 02:00:00 8.1 9 Norte 15 Norte 0 -- -- 96
2020-03-24 01:00:00 8.6 11 Norte 15 Norte 0 -- -- 95
2020-03-24 00:00:00 9.2 10 Noroeste 14 Norte 0 -- -- 95
2020-03-23 23:00:00 9.6 6 Norte 15 Norte 0 -- -- 94
2020-03-23 22:00:00 9.8 13 Norte 18 Norte 0 -- -- 93
2020-03-23 21:00:00 10.5 9 Noroeste 16 Norte 0 -- -- 89
2020-03-23 20:00:00 10.7 13 Norte 18 Norte 0 -- -- 86
2020-03-23 19:00:00 11.4 12 Norte 18 Norte 0 -- -- 81
2020-03-23 18:00:00 12.1 10 Norte 16 Norte 0 -- -- 79
2020-03-23 17:00:00 13.1 7 Norte 10 Norte 0 -- -- 77
2020-03-23 16:00:00 12.6 5 Noroeste 14 Norte 0.6 -- -- 80
2020-03-23 15:00:00 12.9 7 Norte 18 Noroeste 0 -- -- 80
2020-03-23 14:00:00 13.8 3 Oeste 18 Sur 0.4 -- -- 83
2020-03-23 13:00:00 13.6 3 Sudoeste 9 Sudeste 0 -- -- 68
2020-03-23 12:00:00 12.6 2 Sudeste 6 Este 0 -- -- 73
2020-03-23 11:00:00 11.1 3 Sudoeste 8 Sudoeste 0 -- -- 86
2020-03-23 10:00:00 8.1 3 Noroeste 8 Noroeste 0 -- -- 100
2020-03-23 09:00:00 6.4 2 Sudoeste 8 Noroeste 0 -- -- 100
2020-03-23 08:00:00 5.7 2 Sudoeste 8 Norte 0 -- -- 100
2020-03-23 07:00:00 5.6 3 Este 9 Noroeste 0 -- -- 98
2020-03-23 06:00:00 6.3 7 Noroeste 10 Noroeste 0.2 -- -- 98
2020-03-23 05:00:00 7 2 Norte 3 Oeste 0 -- -- 96
2020-03-23 04:00:00 7.4 0 Calma 5 Oeste 0 -- -- 94
2020-03-23 03:00:00 7.6 8 Norte 11 Norte 0 -- -- 96
2020-03-23 02:00:00 8 6 Noroeste 12 Oeste 0 -- -- 97
2020-03-23 01:00:00 8.2 6 Noroeste 10 Oeste 0.2 -- -- 95
2020-03-23 00:00:00 8.5 8 Oeste 19 Norte 2.2 -- -- 98
2020-03-22 23:00:00 8.6 15 Norte 18 Norte 4.4 -- -- 97
2020-03-22 22:00:00 9.7 3 Nordeste 21 Este 2.8 -- -- 95
2020-03-22 21:00:00 10.6 10 Este 26 Sur 0 -- -- 88
2020-03-22 20:00:00 11.8 18 Sur 29 Sudeste 0 -- -- 77
2020-03-22 19:00:00 13 6 Este 14 Norte 0 -- -- 70
2020-03-22 18:00:00 13.9 9 Sudeste 19 Sudeste 0 -- -- 60
2020-03-22 17:00:00 14.7 10 Sudeste 21 Sudeste 0 -- -- 58
2020-03-22 16:00:00 15.9 16 Sudeste 24 Sudeste 0 -- -- 53
2020-03-22 15:00:00 15.9 8 Sudeste 19 Sudeste 0 -- -- 55
2020-03-22 14:00:00 14.2 12 Sudeste 21 Sudeste 0 -- -- 62
2020-03-22 13:00:00 13.8 14 Sudeste 17 Sudeste 0 -- -- 63
2020-03-22 12:00:00 13.5 8 Sudeste 11 Sudeste 0 -- -- 66
2020-03-22 11:00:00 12.5 4 Sur 8 Sur 0 -- -- 72
2020-03-22 10:00:00 11.4 2 Oeste 7 Sudeste 0 -- -- 76
2020-03-22 09:00:00 9.4 0 Calma 5 Norte 0 -- -- 83
2020-03-22 08:00:00 6.9 3 Noroeste 9 Noroeste 0 -- -- 92
2020-03-22 07:00:00 7.2 5 Noroeste 7 Oeste 0 -- -- 90
2020-03-22 06:00:00 7.9 6 Noroeste 9 Oeste 0 -- -- 88
2020-03-22 05:00:00 8.3 4 Oeste 5 Oeste 0 -- -- 89
2020-03-22 04:00:00 8.4 6 Oeste 6 Oeste 0 -- -- 87
2020-03-22 03:00:00 8.6 3 Noroeste 9 Sudeste 0 -- -- 82
2020-03-22 02:00:00 8.8 4 Sudeste 9 Sudeste 0 -- -- 80
2020-03-22 01:00:00 8.8 5 Este 15 Sudeste 0 -- -- 78
2020-03-22 00:00:00 9.4 5 Sudeste 10 Oeste 0 -- -- 78
2020-03-21 23:00:00 9.5 6 Oeste 9 Oeste 0 -- -- 76
2020-03-21 22:00:00 9.5 6 Noroeste 9 Oeste 0 -- -- 77
2020-03-21 21:00:00 10.7 0 Calma 11 Este 0 -- -- 70
2020-03-21 20:00:00 11 7 Este 14 Sudeste 0 -- -- 67
2020-03-21 19:00:00 12.9 11 Sudeste 21 Sur 0 -- -- 57
2020-03-21 18:00:00 14.4 16 Sudeste 28 Sudeste 0 -- -- 53
2020-03-21 17:00:00 15.4 21 Sudeste 30 Sudeste 0 -- -- 53
2020-03-21 16:00:00 16.2 19 Sudeste 27 Sudeste 0 -- -- 50
2020-03-21 15:00:00 16.5 10 Sudeste 19 Sudeste 0 -- -- 46
2020-03-21 14:00:00 16.1 10 Sudeste 18 Sudeste 0 -- -- 51
2020-03-21 13:00:00 15 8 Sudeste 17 Sudeste 0 -- -- 51
2020-03-21 12:00:00 13.5 5 Sudoeste 13 Sudeste 0 -- -- 59
2020-03-21 11:00:00 11.8 3 Norte 8 Sudeste 0 -- -- 66
2020-03-21 10:00:00 9.1 3 Sudeste 8 Sudeste 0 -- -- 88
2020-03-21 09:00:00 7.2 0 Calma 4 Sudeste 0 -- -- 93
2020-03-21 08:00:00 6.6 0 Calma 5 Oeste 0 -- -- 94
2020-03-21 07:00:00 6.3 3 Oeste 6 Noroeste 0 -- -- 95
2020-03-21 06:00:00 6.1 3 Oeste 5 Oeste 0 -- -- 95
2020-03-21 05:00:00 6 0 Calma 5 Noroeste 0 -- -- 96
2020-03-21 04:00:00 5.8 0 Calma 5 Noroeste 0 -- -- 94
2020-03-21 03:00:00 5.5 5 Noroeste 7 Oeste 0 -- -- 95
2020-03-21 02:00:00 5.4 6 Noroeste 8 Oeste 0 -- -- 92
2020-03-21 01:00:00 5.9 5 Noroeste 8 Oeste 0 -- -- 91
2020-03-21 00:00:00 7.2 2 Oeste 4 Oeste 0 -- -- 87
2020-03-20 23:00:00 8 2 Norte 9 Sudeste 0 -- -- 85
2020-03-20 22:00:00 8.3 6 Sudoeste 12 Sur 0 -- -- 83
2020-03-20 21:00:00 9.4 9 Noroeste 12 Oeste 0 -- -- 78
2020-03-20 20:00:00 11.6 0 Calma 9 Sur 0 -- -- 68
2020-03-20 19:00:00 12.7 5 Sur 16 Sudoeste 0 -- -- 62
2020-03-20 18:00:00 14.1 12 Sur 21 Sur 0 -- -- 57
2020-03-20 17:00:00 14.9 16 Sudeste 27 Sudeste 0 -- -- 57
2020-03-20 16:00:00 15.5 17 Sudeste 27 Sudeste 0 -- -- 53
2020-03-20 15:00:00 16.2 14 Sudeste 26 Sudeste 0 -- -- 48
2020-03-20 14:00:00 16.1 16 Sudeste 23 Sudeste 0 -- -- 51
2020-03-20 13:00:00 15.3 9 Sudeste 14 Sudeste 0 -- -- 54
2020-03-20 12:00:00 14.7 12 Sudeste 20 Sudeste 0 -- -- 58
2020-03-20 11:00:00 13.3 6 Sudeste 13 Sudeste 0 -- -- 67
2020-03-20 10:00:00 10.4 2 Sudoeste 6 Este 0 -- -- 90
2020-03-20 09:00:00 8.4 3 Sudeste 6 Sudeste 0 -- -- 100
2020-03-20 08:00:00 7.9 2 Sudeste 5 Sudeste 0 -- -- 100
2020-03-20 07:00:00 7.6 0 Calma 3 Sudeste 0 -- -- 99
2020-03-20 06:00:00 7.6 0 Calma 3 Sudoeste 0 -- -- 98
2020-03-20 05:00:00 7.9 0 Calma 3 Sudeste 0 -- -- 98
2020-03-20 04:00:00 7.9 0 Calma 4 Oeste 0 -- -- 97
2020-03-20 03:00:00 8 4 Oeste 8 Noroeste 0 -- -- 94
2020-03-20 02:00:00 8.3 5 Oeste 8 Oeste 0 -- -- 94
2020-03-20 01:00:00 8.5 5 Oeste 6 Oeste 0 -- -- 94
2020-03-20 00:00:00 9.1 5 Oeste 7 Oeste 0 -- -- 92
2020-03-19 23:00:00 9.9 3 Oeste 8 Oeste 0 -- -- 90
2020-03-19 22:00:00 10.7 3 Oeste 4 Oeste 0 -- -- 88
2020-03-19 21:00:00 11.9 0 Calma 8 Nordeste 0 -- -- 82
2020-03-19 20:00:00 12.8 3 Sudeste 12 Sudeste 0 -- -- 80
2020-03-19 19:00:00 13.5 10 Sudeste 21 Sudeste 0 -- -- 77
2020-03-19 18:00:00 14.6 15 Sudeste 23 Sudeste 0 -- -- 73
2020-03-19 17:00:00 16.7 19 Sudeste 25 Sudeste 0 -- -- 61
2020-03-19 16:00:00 18.7 13 Sudeste 18 Sudeste 0 -- -- 51
2020-03-19 15:00:00 17.6 9 Sudeste 14 Sudeste 0 -- -- 57
2020-03-19 14:00:00 17.9 8 Sur 13 Sur 0 -- -- 60
2020-03-19 13:00:00 16.2 4 Sudeste 10 Este 0 -- -- 67
2020-03-19 12:00:00 12.8 4 Nordeste 9 Nordeste 0 -- -- 80
2020-03-19 11:00:00 10.4 2 Oeste 6 Este 0 -- -- 97
2020-03-19 10:00:00 8.8 2 Oeste 9 Oeste 0 -- -- 100
2020-03-19 09:00:00 7.9 0 Calma 7 Noroeste 0 -- -- 100
2020-03-19 08:00:00 7.1 5 Noroeste 9 Noroeste 0 -- -- 100
2020-03-19 07:00:00 7.3 3 Norte 6 Noroeste 0 -- -- 100
2020-03-19 06:00:00 8.3 0 Calma 6 Sudeste 0 -- -- 100
2020-03-19 05:00:00 8.7 3 Sudeste 5 Sudeste 0 -- -- 98
2020-03-19 04:00:00 9.7 2 Norte 8 Noroeste 0 -- -- 97
2020-03-19 03:00:00 10.2 2 Noroeste 5 Noroeste 0 -- -- 96
2020-03-19 02:00:00 10.5 2 Noroeste 8 Noroeste 0 -- -- 95
2020-03-19 01:00:00 10.6 0 Calma 6 Noroeste 0 -- -- 96
2020-03-19 00:00:00 10.4 5 Noroeste 10 Norte 0 -- -- 96
2020-03-18 23:00:00 10.2 8 Norte 13 Norte 0 -- -- 97
2020-03-18 22:00:00 10.4 8 Norte 11 Norte 0 -- -- 96
2020-03-18 21:00:00 11.1 6 Norte 8 Nordeste 0 -- -- 93
2020-03-18 20:00:00 11.8 6 Sudeste 15 Sudeste 0 -- -- 92
2020-03-18 19:00:00 12.5 11 Sudeste 20 Sudeste 0 -- -- 89
2020-03-18 18:00:00 13.5 15 Sudeste 21 Sudeste 0 -- -- 83
2020-03-18 17:00:00 15 17 Sudeste 20 Sudeste 0 -- -- 77
2020-03-18 16:00:00 16 10 Sudeste 14 Sudeste 0 -- -- 71
2020-03-18 15:00:00 15.5 7 Sudeste 9 Sudeste 0 -- -- 70
2020-03-18 14:00:00 14.4 4 Sudeste 8 Sudeste 0 -- -- 73
2020-03-18 13:00:00 12.7 4 Este 7 Este 0 -- -- 81
2020-03-18 12:00:00 11.6 4 Sudeste 8 Sudeste 0 -- -- 86
2020-03-18 11:00:00 10.1 3 Sudeste 7 Sudoeste 0 -- -- 93
2020-03-18 10:00:00 8.3 3 Oeste 5 Oeste 0 -- -- 99
2020-03-18 09:00:00 6.9 4 Oeste 7 Norte 0 -- -- 100
2020-03-18 08:00:00 6.5 5 Oeste 11 Noroeste 0 -- -- 100
2020-03-18 07:00:00 6.4 6 Noroeste 10 Noroeste 0 -- -- 100
2020-03-18 06:00:00 6.7 5 Noroeste 9 Oeste 0.2 -- -- 100
2020-03-18 05:00:00 7.1 7 Noroeste 8 Noroeste 0 -- -- 100
2020-03-18 04:00:00 7.6 3 Noroeste 8 Noroeste 0 -- -- 100
2020-03-18 03:00:00 8 4 Norte 11 Noroeste 0 -- -- 100
2020-03-18 02:00:00 8.2 5 Noroeste 9 Norte 0 -- -- 99
2020-03-18 01:00:00 8.5 4 Noroeste 8 Noroeste 0 -- -- 99
2020-03-18 00:00:00 8.9 4 Oeste 6 Noroeste 0 -- -- 99
2020-03-17 23:00:00 9.2 5 Oeste 6 Noroeste 0 -- -- 97
2020-03-17 22:00:00 9.8 4 Noroeste 7 Noroeste 0 -- -- 99
2020-03-17 21:00:00 10.8 3 Noroeste 6 Norte 0 -- -- 98
2020-03-17 20:00:00 11.4 2 Este 5 Sudoeste 0 -- -- 96
2020-03-17 19:00:00 12.1 3 Oeste 5 Oeste 0 -- -- 92
2020-03-17 18:00:00 12.6 2 Oeste 4 Oeste 0 -- -- 92
2020-03-17 17:00:00 12.5 0 Calma 4 Oeste 0 -- -- 92
2020-03-17 16:00:00 12.4 4 Oeste 7 Sudeste 0 -- -- 91
2020-03-17 15:00:00 12.3 5 Sudeste 8 Sudeste 0 -- -- 90
2020-03-17 14:00:00 12.6 3 Este 6 Sudeste 0 -- -- 90
2020-03-17 13:00:00 11.7 2 Este 5 Este 0 -- -- 93
2020-03-17 12:00:00 10.5 4 Oeste 5 Sudoeste 0.2 -- -- 98
2020-03-17 11:00:00 9.4 3 Noroeste 7 Noroeste 0 -- -- 100
2020-03-17 10:00:00 9 2 Noroeste 5 Oeste 0 -- -- 100
2020-03-17 09:00:00 8.6 2 Noroeste 6 Norte 0 -- -- 99
2020-03-17 08:00:00 8.2 5 Noroeste 9 Norte 0 -- -- 100
2020-03-17 07:00:00 8 6 Oeste 13 Noroeste 0.4 -- -- 100
2020-03-17 06:00:00 8 0 Calma 6 Noroeste 0 -- -- 99
2020-03-17 05:00:00 8 3 Oeste 6 Oeste 0 -- -- 99
2020-03-17 04:00:00 7.9 3 Oeste 6 Noroeste 0 -- -- 100
2020-03-17 03:00:00 8.2 0 Calma 8 Sudeste 0 -- -- 99
2020-03-17 02:00:00 8.3 5 Sudeste 6 Sudeste 0 -- -- 98
2020-03-17 01:00:00 8.5 7 Norte 9 Norte 0 -- -- 97
2020-03-17 00:00:00 8.4 6 Oeste 8 Oeste 0 -- -- 98
2020-03-16 23:00:00 8.3 4 Noroeste 12 Oeste 0 -- -- 98
2020-03-16 22:00:00 8.5 8 Noroeste 12 Noroeste 0 -- -- 96
2020-03-16 21:00:00 8.3 6 Noroeste 12 Oeste 0 -- -- 95
2020-03-16 20:00:00 8.2 7 Noroeste 13 Oeste 0 -- -- 96
2020-03-16 19:00:00 8.4 11 Norte 17 Norte 0 -- -- 97
2020-03-16 18:00:00 8.4 4 Noroeste 10 Norte 0.4 -- -- 96
2020-03-16 17:00:00 8.3 7 Noroeste 15 Norte 0 -- -- 95
2020-03-16 16:00:00 8.1 2 Noroeste 11 Oeste 0 -- -- 95
2020-03-16 15:00:00 7.8 6 Oeste 23 Norte 0.6 -- -- 97
2020-03-16 14:00:00 7.5 14 Noroeste 27 Noroeste 1.2 -- -- 94
2020-03-16 13:00:00 7.2 9 Norte 14 Norte 1.8 -- -- 99
2020-03-16 12:00:00 7 4 Noroeste 13 Norte 1.6 -- -- 97
2020-03-16 11:00:00 6.5 12 Norte 18 Norte 1.8 -- -- 97
2020-03-16 10:00:00 6.3 10 Noroeste 23 Norte 1.8 -- -- 97
2020-03-16 09:00:00 6.1 15 Noroeste 23 Norte 1.8 -- -- 96
2020-03-16 08:00:00 6.1 14 Norte 26 Norte 3.6 -- -- 97
2020-03-16 07:00:00 6.8 10 Norte 21 Norte 5 -- -- 98
2020-03-16 06:00:00 7.1 8 Norte 19 Norte 6.4 -- -- 99
2020-03-16 05:00:00 7.6 7 Norte 19 Norte 7.2 -- -- 99
2020-03-16 04:00:00 7.5 14 Norte 18 Norte 8.6 -- -- 98
2020-03-16 03:00:00 8.1 12 Norte 20 Nordeste 7.6 -- -- 100
2020-03-16 02:00:00 8.7 7 Este 14 Nordeste 7 -- -- 100
2020-03-16 01:00:00 8.7 9 Oeste 15 Este 4.2 -- -- 100
2020-03-16 00:00:00 8.8 12 Sudeste 40 Sudoeste 6.4 -- -- 99
2020-03-15 23:00:00 9.7 11 Sudeste 30 Sur 2.2 -- -- 96
2020-03-15 22:00:00 10.5 10 Sur 30 Sur 0.6 -- -- 95
2020-03-15 21:00:00 11 13 Sudeste 27 Sudeste 1.4 -- -- 94
2020-03-15 20:00:00 11.7 6 Sudoeste 19 Sudeste 0 -- -- 91
2020-03-15 19:00:00 12.4 16 Sudeste 28 Sur 0.2 -- -- 87
2020-03-15 18:00:00 14.3 19 Sur 28 Sur 0 -- -- 72
2020-03-15 17:00:00 16.3 12 Sur 24 Sur 0 -- -- 58
2020-03-15 16:00:00 17.6 19 Sudeste 26 Sudeste 0 -- -- 57
2020-03-15 15:00:00 18.3 13 Sudeste 19 Sudeste 0 -- -- 43
2020-03-15 14:00:00 18.5 10 Sudeste 16 Sudeste 0 -- -- 47
2020-03-15 13:00:00 16 2 Sudoeste 14 Sur 0 -- -- 61
2020-03-15 12:00:00 16.3 8 Sur 13 Sudeste 0 -- -- 63
2020-03-15 11:00:00 12.5 2 Oeste 8 Sur 0 -- -- 75
2020-03-15 10:00:00 8.8 3 Sur 6 Este 0 -- -- 100
2020-03-15 09:00:00 5.7 0 Calma 7 Noroeste 0 -- -- 100
2020-03-15 08:00:00 4.7 5 Noroeste 11 Norte 0 -- -- 100
2020-03-15 07:00:00 4.2 4 Noroeste 10 Norte 0 -- -- 99
2020-03-15 06:00:00 4.3 3 Oeste 6 Nordeste 0 -- -- 99
2020-03-15 05:00:00 5.3 5 Este 9 Sudeste 0 -- -- 99
2020-03-15 04:00:00 5.7 8 Sudeste 9 Sudeste 0 -- -- 97
2020-03-15 03:00:00 6.4 6 Oeste 8 Oeste 0 -- -- 93
2020-03-15 02:00:00 6.6 6 Oeste 12 Oeste 0 -- -- 94
2020-03-15 01:00:00 7.3 4 Oeste 6 Oeste 0 -- -- 92
2020-03-15 00:00:00 7.7 4 Oeste 12 Oeste 0 -- -- 91
2020-03-14 23:00:00 8.5 9 Oeste 13 Oeste 0 -- -- 91
2020-03-14 22:00:00 9.2 8 Noroeste 10 Noroeste 0 -- -- 89
2020-03-14 21:00:00 10.6 8 Noroeste 9 Noroeste 0 -- -- 85
2020-03-14 20:00:00 11.9 3 Norte 13 Sudeste 0 -- -- 79
2020-03-14 19:00:00 13 10 Sudeste 23 Sudeste 0 -- -- 77
2020-03-14 18:00:00 14.4 19 Sudeste 25 Sudeste 0 -- -- 72
2020-03-14 17:00:00 15.1 19 Sudeste 30 Sudeste 0 -- -- 70
2020-03-14 16:00:00 15.2 26 Sudeste 32 Sudeste 0 -- -- 69
2020-03-14 15:00:00 15.4 27 Sudeste 31 Sudeste 0 -- -- 68
2020-03-14 14:00:00 16 24 Sudeste 29 Sudeste 0 -- -- 67
2020-03-14 13:00:00 16.3 19 Sudeste 23 Sudeste 0 -- -- 66
2020-03-14 12:00:00 16.6 9 Sudeste 14 Sudeste 0 -- -- 63
2020-03-14 11:00:00 15 6 Este 10 Este 0 -- -- 69
2020-03-14 10:00:00 11.4 3 Sudoeste 5 Oeste 0 -- -- 82
2020-03-14 09:00:00 10.1 3 Norte 7 Norte 0 -- -- 90
2020-03-14 08:00:00 9.4 4 Norte 9 Oeste 0 -- -- 95
2020-03-14 07:00:00 9.2 6 Oeste 8 Oeste 0 -- -- 93
2020-03-14 06:00:00 9.3 5 Oeste 7 Oeste 0 -- -- 94
2020-03-14 05:00:00 9.5 6 Oeste 8 Oeste 0 -- -- 95
2020-03-14 04:00:00 9.8 0 Calma 5 Sudeste 0 -- -- 95
2020-03-14 03:00:00 9.8 5 Oeste 6 Oeste 0 -- -- 95
2020-03-14 02:00:00 10.1 4 Sudeste 12 Oeste 0 -- -- 96
2020-03-14 01:00:00 10.4 8 Oeste 10 Oeste 0 -- -- 94
2020-03-14 00:00:00 11.3 5 Oeste 7 Oeste 0 -- -- 93
2020-03-13 23:00:00 12 0 Calma 4 Sudeste 0 -- -- 90
2020-03-13 22:00:00 12.1 4 Sudeste 6 Este 0 -- -- 90
2020-03-13 21:00:00 12.2 5 Sudeste 8 Sudeste 0 -- -- 89
2020-03-13 20:00:00 12.6 2 Sudeste 11 Sudeste 0 -- -- 87
2020-03-13 19:00:00 12.8 9 Sudeste 13 Sudeste 0 -- -- 86
2020-03-13 18:00:00 14 3 Este 5 Sur 0 -- -- 82
2020-03-13 17:00:00 14.1 3 Sudeste 6 Sudeste 0 -- -- 82
2020-03-13 16:00:00 13.9 2 Este 6 Este 0 -- -- 80
2020-03-13 15:00:00 13.4 4 Sudeste 10 Este 0 -- -- 87
2020-03-13 14:00:00 12.8 4 Sudeste 8 Sudeste 0 -- -- 89
2020-03-13 13:00:00 12.3 3 Nordeste 6 Este 0 -- -- 92
2020-03-13 12:00:00 12.2 0 Calma 8 Este 0 -- -- 93
2020-03-13 11:00:00 11.3 5 Este 13 Norte 0 -- -- 99
2020-03-13 10:00:00 10.3 9 Oeste 39 Este 0.2 -- -- 100
2020-03-13 09:00:00 9.7 10 Sudeste 15 Sudeste 0 -- -- 100
2020-03-13 08:00:00 9.6 4 Sudeste 6 Sudeste 0 -- -- 99
2020-03-13 07:00:00 10.2 0 Calma 12 Oeste 0 -- -- 97
2020-03-13 06:00:00 10.4 8 Noroeste 12 Oeste 0 -- -- 98
2020-03-13 05:00:00 11 5 Noroeste 11 Este 0.2 -- -- 98
2020-03-13 04:00:00 11.1 3 Noroeste 14 Sudeste 0 -- -- 96
2020-03-13 03:00:00 11.7 9 Sudeste 14 Sudeste 0 -- -- 95
2020-03-13 02:00:00 12.5 10 Oeste 20 Norte 0.8 -- -- 90
2020-03-13 01:00:00 13 11 Noroeste 19 Noroeste 1 -- -- 85
2020-03-13 00:00:00 13.1 8 Norte 14 Norte 0 -- -- 82
2020-03-12 23:00:00 14.4 3 Sur 14 Oeste 0 -- -- 72
2020-03-12 22:00:00 14.8 7 Noroeste 15 Norte 0 -- -- 70
2020-03-12 21:00:00 15.5 7 Noroeste 14 Norte 0 -- -- 69
2020-03-12 20:00:00 17.3 8 Noroeste 12 Noroeste 0 -- -- 62
2020-03-12 19:00:00 19.4 6 Noroeste 9 Norte 0 -- -- 57
2020-03-12 18:00:00 21.4 6 Sudeste 9 Sudeste 0 -- -- 48
2020-03-12 17:00:00 22.6 8 Sudeste 11 Este 0 -- -- 45
2020-03-12 16:00:00 22.3 6 Sudeste 9 Sudeste 0 -- -- 42
2020-03-12 15:00:00 21.9 2 Sudeste 7 Sudeste 0 -- -- 41
2020-03-12 14:00:00 21.5 4 Sudeste 6 Sudeste 0 -- -- 43
2020-03-12 13:00:00 20.6 3 Sudoeste 6 Oeste 0 -- -- 40
2020-03-12 12:00:00 18 3 Oeste 6 Sudeste 0 -- -- 55
2020-03-12 11:00:00 15.4 2 Sudoeste 7 Este 0 -- -- 62
2020-03-12 10:00:00 12.7 4 Sudeste 8 Este 0 -- -- 70
2020-03-12 09:00:00 8.8 5 Noroeste 12 Oeste 0 -- -- 75
2020-03-12 08:00:00 7.4 8 Noroeste 12 Noroeste 0 -- -- 82
2020-03-12 07:00:00 7.2 3 Norte 6 Noroeste 0 -- -- 83
2020-03-12 06:00:00 7.7 3 Noroeste 8 Norte 0 -- -- 81
2020-03-12 05:00:00 8.7 3 Noroeste 12 Noroeste 0 -- -- 76
2020-03-12 04:00:00 9.5 8 Noroeste 11 Noroeste 0 -- -- 73
2020-03-12 03:00:00 9.4 10 Noroeste 11 Noroeste 0 -- -- 75
2020-03-12 02:00:00 10.4 4 Noroeste 9 Oeste 0 -- -- 68
2020-03-12 01:00:00 10.4 8 Noroeste 12 Noroeste 0 -- -- 72
2020-03-12 00:00:00 10.4 7 Oeste 12 Norte 0 -- -- 77
2020-03-11 23:00:00 11.5 6 Noroeste 14 Oeste 0 -- -- 73
2020-03-11 22:00:00 12.6 6 Noroeste 12 Oeste 0 -- -- 69
2020-03-11 21:00:00 13.4 8 Oeste 13 Noroeste 0 -- -- 69
2020-03-11 20:00:00 15.8 10 Norte 15 Norte 0 -- -- 61
2020-03-11 19:00:00 18.4 5 Nordeste 15 Sudeste 0 -- -- 54
2020-03-11 18:00:00 19.6 13 Sudeste 22 Sudeste 0 -- -- 51
2020-03-11 17:00:00 20.5 19 Sudeste 28 Sudeste 0 -- -- 45
2020-03-11 16:00:00 21.3 21 Sudeste 27 Sudeste 0 -- -- 42
2020-03-11 15:00:00 21.8 21 Sudeste 24 Sudeste 0 -- -- 42
2020-03-11 14:00:00 22 14 Sudeste 18 Sudeste 0 -- -- 36
2020-03-11 13:00:00 20.3 10 Sudeste 14 Sudeste 0 -- -- 33
2020-03-11 12:00:00 17 10 Sudeste 14 Sudeste 0 -- -- 43
2020-03-11 11:00:00 14.9 6 Sudeste 10 Este 0 -- -- 50
2020-03-11 10:00:00 10.6 4 Sudeste 9 Este 0 -- -- 65
2020-03-11 09:00:00 7.2 5 Noroeste 13 Noroeste 0 -- -- 75
2020-03-11 08:00:00 4.4 5 Noroeste 14 Norte 0 -- -- 81
2020-03-11 07:00:00 3.8 3 Noroeste 13 Norte 0 -- -- 85
2020-03-11 06:00:00 4.2 6 Noroeste 14 Norte 0 -- -- 85
2020-03-11 05:00:00 4.9 8 Norte 15 Norte 0 -- -- 86
2020-03-11 04:00:00 5.6 11 Norte 15 Norte 0 -- -- 86
2020-03-11 03:00:00 6 7 Norte 13 Norte 0 -- -- 87
2020-03-11 02:00:00 6.8 5 Noroeste 16 Norte 0 -- -- 89
2020-03-11 01:00:00 7.4 8 Noroeste 10 Norte 0 -- -- 87
2020-03-11 00:00:00 8.6 4 Norte 11 Noroeste 0 -- -- 84
2020-03-10 23:00:00 9.7 7 Noroeste 12 Oeste 0 -- -- 81
2020-03-10 22:00:00 10 7 Noroeste 12 Noroeste 0 -- -- 78
2020-03-10 21:00:00 11.7 6 Oeste 13 Noroeste 0 -- -- 72
2020-03-10 20:00:00 12.8 10 Noroeste 12 Oeste 0 -- -- 69
2020-03-10 19:00:00 15.4 3 Nordeste 10 Sudeste 0 -- -- 57
2020-03-10 18:00:00 16.6 8 Sudeste 17 Sudeste 0 -- -- 54
2020-03-10 17:00:00 17.2 14 Sudeste 18 Sudeste 0 -- -- 51
2020-03-10 16:00:00 17.9 9 Sudeste 13 Sudeste 0 -- -- 46
2020-03-10 15:00:00 17 11 Sudeste 14 Sudeste 0 -- -- 46
2020-03-10 14:00:00 16.8 7 Sudeste 12 Sudeste 0 -- -- 47
2020-03-10 13:00:00 14.6 8 Sudeste 14 Sudeste 0 -- -- 52
2020-03-10 12:00:00 12 11 Sudeste 15 Sudeste 0 -- -- 59
2020-03-10 11:00:00 10.8 5 Sur 10 Este 0 -- -- 61
2020-03-10 10:00:00 7.8 3 Oeste 10 Este 0 -- -- 72
2020-03-10 09:00:00 3.9 4 Norte 10 Nordeste 0 -- -- 84
2020-03-10 08:00:00 2.5 3 Nordeste 9 Oeste 0 -- -- 89
2020-03-10 07:00:00 2.7 3 Este 10 Norte 0 -- -- 86
2020-03-10 06:00:00 3 4 Noroeste 10 Oeste 0 -- -- 84
2020-03-10 05:00:00 3.7 3 Oeste 9 Noroeste 0 -- -- 80
2020-03-10 04:00:00 3.9 5 Oeste 13 Oeste 0 -- -- 78
2020-03-10 03:00:00 4.3 9 Oeste 14 Oeste 0 -- -- 76
2020-03-10 02:00:00 5.2 7 Oeste 10 Norte 0 -- -- 71
2020-03-10 01:00:00 6.3 6 Sudeste 17 Sudeste 0 -- -- 66
2020-03-10 00:00:00 7.1 10 Sudeste 18 Sudeste 0 -- -- 63
2020-03-09 23:00:00 8 10 Sur 39 Oeste 0 -- -- 55
2020-03-09 22:00:00 8.8 25 Oeste 39 Oeste 0 -- -- 50
2020-03-09 21:00:00 10.2 18 Noroeste 36 Oeste 0 -- -- 45
2020-03-09 20:00:00 10.4 20 Noroeste 36 Oeste 0 -- -- 47
2020-03-09 19:00:00 11.4 25 Oeste 41 Oeste 0 -- -- 42
2020-03-09 18:00:00 14 17 Noroeste 35 Norte 0 -- -- 39
2020-03-09 17:00:00 14 15 Norte 48 Norte 0 -- -- 38
2020-03-09 16:00:00 15.7 16 Noroeste 49 Norte 0 -- -- 36
2020-03-09 15:00:00 15.8 23 Noroeste 47 Norte 0 -- -- 30
2020-03-09 14:00:00 16.3 11 Noroeste 32 Oeste 0 -- -- 34
2020-03-09 13:00:00 13.7 10 Noroeste 37 Norte 0 -- -- 34
2020-03-09 12:00:00 12.9 9 Oeste 19 Sudeste 0 -- -- 37
2020-03-09 11:00:00 13.1 11 Sudeste 22 Sudeste 0 -- -- 51
2020-03-09 10:00:00 10.1 13 Sudeste 20 Sudeste 0 -- -- 62
2020-03-09 09:00:00 6.9 8 Sudeste 22 Sudeste 0 -- -- 74
2020-03-09 08:00:00 4.2 11 Sudeste 16 Sudeste 0 -- -- 92
2020-03-09 07:00:00 4.1 4 Este 15 Norte 0 -- -- 88
2020-03-09 06:00:00 3.7 12 Norte 22 Norte 0 -- -- 91
2020-03-09 05:00:00 4.8 15 Norte 20 Norte 0 -- -- 86
2020-03-09 04:00:00 5.7 14 Norte 21 Norte 0 -- -- 83
2020-03-09 03:00:00 6.3 10 Norte 20 Norte 0 -- -- 80
2020-03-09 02:00:00 7.1 6 Nordeste 17 Norte 0 -- -- 77
2020-03-09 01:00:00 6.8 12 Norte 21 Norte 0 -- -- 80
2020-03-09 00:00:00 6.4 16 Norte 22 Norte 0 -- -- 84